createdAt,value
2023-01-12T00:02:02.166Z,7.10
2023-01-12T00:04:31.292Z,7.00
2023-01-12T00:06:59.853Z,7.00
2023-01-12T00:09:27.915Z,7.00
2023-01-12T00:11:56.208Z,7.00
2023-01-12T00:14:24.530Z,6.80
2023-01-12T00:16:52.833Z,6.80
2023-01-12T00:19:23.558Z,6.80
2023-01-12T00:21:59.296Z,6.80
2023-01-12T00:24:28.289Z,6.80
2023-01-12T00:26:57.133Z,6.80
2023-01-12T00:29:26.322Z,6.90
2023-01-12T00:31:54.816Z,6.80
2023-01-12T00:34:25.630Z,6.80
2023-01-12T00:36:54.914Z,6.70
2023-01-12T00:39:23.501Z,6.70
2023-01-12T00:42:08.946Z,6.60
2023-01-12T00:44:54.902Z,6.60
2023-01-12T00:47:23.168Z,6.60
2023-01-12T00:49:53.367Z,6.50
2023-01-12T00:52:30.349Z,6.40
2023-01-12T00:55:00.012Z,6.40
2023-01-12T00:57:28.325Z,6.30
2023-01-12T00:59:59.446Z,6.40
2023-01-12T01:02:27.809Z,6.30
2023-01-12T01:04:57.437Z,6.20
2023-01-12T01:07:25.854Z,6.20
2023-01-12T01:09:53.970Z,6.10
2023-01-12T01:12:22.409Z,6.10
2023-01-12T01:14:50.469Z,6.10
2023-01-12T01:17:18.966Z,6.00
2023-01-12T01:19:48.255Z,6.00
2023-01-12T01:22:18.119Z,6.00
2023-01-12T01:24:46.170Z,5.90
2023-01-12T01:27:15.006Z,5.90
2023-01-12T01:29:42.989Z,5.80
2023-01-12T01:32:11.207Z,5.70
2023-01-12T01:34:39.756Z,5.70
2023-01-12T01:37:07.777Z,5.70
2023-01-12T01:39:37.663Z,5.70
2023-01-12T01:42:05.728Z,5.70
2023-01-12T01:44:50.867Z,5.80
2023-01-12T01:47:23.432Z,5.80
2023-01-12T01:49:53.884Z,5.80
2023-01-12T01:52:23.508Z,5.80
2023-01-12T01:54:54.531Z,5.70
2023-01-12T01:57:24.724Z,5.80
2023-01-12T01:59:55.252Z,5.70
2023-01-12T02:02:23.817Z,5.80
2023-01-12T02:04:52.705Z,5.70
2023-01-12T02:07:20.812Z,5.60
2023-01-12T02:09:49.038Z,5.60
2023-01-12T02:12:36.142Z,5.60
2023-01-12T02:15:22.068Z,5.70
2023-01-12T02:17:57.296Z,5.60
2023-01-12T02:20:42.369Z,5.60
2023-01-12T02:23:28.867Z,5.60
2023-01-12T02:26:21.414Z,5.60
2023-01-12T02:29:04.762Z,5.60
2023-01-12T02:31:41.371Z,5.50
2023-01-12T02:34:15.722Z,5.50
2023-01-12T02:36:50.015Z,5.50
2023-01-12T02:39:22.943Z,5.50
2023-01-12T02:42:12.302Z,5.50
2023-01-12T02:44:43.442Z,5.40
2023-01-12T02:47:19.072Z,5.40
2023-01-12T02:49:49.928Z,5.40
2023-01-12T02:52:22.053Z,5.50
2023-01-12T02:54:50.777Z,5.50
2023-01-12T02:57:21.918Z,5.40
2023-01-12T02:59:50.767Z,5.40
2023-01-12T03:02:22.237Z,5.40
2023-01-12T03:04:51.869Z,5.40
2023-01-12T03:07:28.485Z,5.40
2023-01-12T03:09:59.723Z,5.40
2023-01-12T03:12:31.233Z,5.30
2023-01-12T03:15:00.891Z,5.30
2023-01-12T03:17:34.184Z,5.30
2023-01-12T03:20:04.421Z,5.30
2023-01-12T03:22:36.316Z,5.30
2023-01-12T03:25:09.225Z,5.30
2023-01-12T03:27:39.771Z,5.40
2023-01-12T03:30:09.783Z,5.40
2023-01-12T03:32:39.798Z,5.40
2023-01-12T03:35:09.235Z,5.40
2023-01-12T03:37:38.890Z,5.40
2023-01-12T03:40:10.568Z,5.40
2023-01-12T03:42:39.813Z,5.40
2023-01-12T03:45:13.288Z,5.30
2023-01-12T03:47:44.689Z,5.30
2023-01-12T03:50:14.781Z,5.20
2023-01-12T03:52:44.710Z,5.10
2023-01-12T03:55:16.789Z,5.20
2023-01-12T03:57:45.969Z,5.10
2023-01-12T04:00:15.281Z,5.10
2023-01-12T04:02:45.933Z,5.10
2023-01-12T04:05:15.065Z,5.10
2023-01-12T04:07:43.334Z,5.10
2023-01-12T04:10:12.251Z,5.10
2023-01-12T04:12:40.836Z,5.00
2023-01-12T04:15:09.682Z,5.00
2023-01-12T04:17:37.701Z,5.00
2023-01-12T04:20:09.610Z,5.00
2023-01-12T04:22:45.748Z,5.10
2023-01-12T04:25:15.163Z,5.10
2023-01-12T04:27:46.195Z,5.10
2023-01-12T04:30:15.240Z,5.10
2023-01-12T04:32:43.550Z,5.10
2023-01-12T04:35:13.534Z,5.10
2023-01-12T04:37:42.037Z,5.10
2023-01-12T04:40:11.353Z,5.10
2023-01-12T04:42:57.272Z,5.20
2023-01-12T04:45:25.609Z,5.20
2023-01-12T04:47:53.591Z,5.10
2023-01-12T04:50:23.349Z,5.10
2023-01-12T04:52:51.928Z,5.10
2023-01-12T04:55:19.973Z,5.10
2023-01-12T04:57:48.369Z,5.10
2023-01-12T05:00:16.668Z,5.00
2023-01-12T05:02:45.427Z,5.00
2023-01-12T05:05:13.432Z,5.10
2023-01-12T05:08:03.635Z,5.00
2023-01-12T05:10:30.743Z,5.10
2023-01-12T05:12:59.225Z,5.10
2023-01-12T05:15:27.258Z,5.00
2023-01-12T05:17:56.253Z,5.10
2023-01-12T05:20:24.293Z,5.10
2023-01-12T05:22:55.341Z,5.00
2023-01-12T05:25:23.352Z,5.10
2023-01-12T05:27:51.767Z,5.00
2023-01-12T05:30:20.454Z,5.00
2023-01-12T05:32:48.937Z,5.10
2023-01-12T05:35:16.916Z,5.10
2023-01-12T05:37:45.169Z,5.10
2023-01-12T05:40:15.480Z,5.10
2023-01-12T05:43:01.338Z,5.20
2023-01-12T05:45:29.394Z,5.20
2023-01-12T05:47:58.119Z,5.20
2023-01-12T05:50:26.567Z,5.20
2023-01-12T05:53:09.155Z,5.20
2023-01-12T05:55:38.900Z,5.20
2023-01-12T05:58:07.499Z,5.20
2023-01-12T06:00:36.189Z,5.10
2023-01-12T06:03:05.452Z,5.20
2023-01-12T06:05:33.929Z,5.20
2023-01-12T06:08:02.784Z,5.20
2023-01-12T06:10:30.857Z,5.20
2023-01-12T06:13:17.809Z,5.20
2023-01-12T06:15:46.404Z,5.20
2023-01-12T06:18:14.548Z,5.30
2023-01-12T06:20:42.904Z,5.30
2023-01-12T06:23:11.024Z,5.40
2023-01-12T06:25:39.023Z,5.40
2023-01-12T06:28:08.524Z,5.40
2023-01-12T06:30:36.804Z,5.40
2023-01-12T06:33:04.937Z,5.40
2023-01-12T06:35:33.251Z,5.40
2023-01-12T06:38:02.469Z,5.40
2023-01-12T06:40:30.519Z,5.40
2023-01-12T06:42:59.111Z,5.40
2023-01-12T06:45:28.474Z,5.40
2023-01-12T06:47:57.552Z,5.40
2023-01-12T06:50:25.649Z,5.50
2023-01-12T06:52:55.642Z,5.50
2023-01-12T06:55:23.794Z,5.50
2023-01-12T06:57:52.050Z,5.50
2023-01-12T07:00:20.348Z,5.50
2023-01-12T07:02:51.830Z,5.50
2023-01-12T07:05:19.963Z,5.50
2023-01-12T07:07:47.990Z,5.60
2023-01-12T07:10:17.666Z,5.60
2023-01-12T07:12:45.669Z,5.50
2023-01-12T07:15:15.439Z,5.50
2023-01-12T07:17:43.465Z,5.50
2023-01-12T07:20:13.711Z,5.50
2023-01-12T07:22:41.761Z,5.50
2023-01-12T07:25:10.764Z,5.60
2023-01-12T07:27:38.840Z,5.60
2023-01-12T07:30:07.792Z,5.60
2023-01-12T07:32:36.108Z,5.60
2023-01-12T07:35:04.217Z,5.60
2023-01-12T07:37:34.561Z,5.50
2023-01-12T07:40:02.611Z,5.60
2023-01-12T07:42:31.117Z,5.60
2023-01-12T07:44:59.142Z,5.50
2023-01-12T07:47:28.193Z,5.60
2023-01-12T07:49:56.248Z,5.60
2023-01-12T07:52:25.098Z,5.60
2023-01-12T07:54:54.512Z,5.60
2023-01-12T07:57:23.339Z,5.60
2023-01-12T07:59:51.384Z,5.60
2023-01-12T08:02:19.790Z,5.60
2023-01-12T08:04:48.444Z,5.60
2023-01-12T08:07:16.526Z,5.70
2023-01-12T08:09:45.309Z,5.70
2023-01-12T08:12:14.813Z,5.80
2023-01-12T08:14:43.309Z,5.80
2023-01-12T08:17:13.856Z,5.90
2023-01-12T08:19:44.066Z,5.90
2023-01-12T08:22:15.848Z,6.00
2023-01-12T08:24:45.585Z,6.00
2023-01-12T08:27:15.852Z,6.00
2023-01-12T08:29:45.269Z,6.10
2023-01-12T08:32:16.284Z,6.10
2023-01-12T08:34:46.098Z,6.20
2023-01-12T08:37:17.208Z,6.20
2023-01-12T08:39:47.490Z,6.20
2023-01-12T08:42:16.875Z,6.30
2023-01-12T08:44:45.586Z,6.40
2023-01-12T08:47:18.261Z,6.40
2023-01-12T08:49:46.923Z,6.50
2023-01-12T08:52:16.498Z,6.50
2023-01-12T08:54:44.840Z,6.50
2023-01-12T08:57:13.729Z,6.60
2023-01-12T08:59:43.282Z,6.60
2023-01-12T09:02:11.993Z,6.60
2023-01-12T09:04:40.717Z,6.60
2023-01-12T09:07:09.200Z,6.70
2023-01-12T09:09:38.099Z,6.70
2023-01-12T09:12:07.091Z,6.80
2023-01-12T09:14:38.637Z,6.80
2023-01-12T09:17:08.361Z,6.80
2023-01-12T09:19:37.080Z,6.80
2023-01-12T09:22:05.106Z,7.00
2023-01-12T09:24:33.383Z,7.00
2023-01-12T09:27:01.501Z,7.10
2023-01-12T09:29:30.129Z,7.20
2023-01-12T09:31:58.233Z,7.20
2023-01-12T09:34:27.911Z,7.30
2023-01-12T09:36:57.362Z,7.30
2023-01-12T09:39:28.198Z,7.30
2023-01-12T09:42:14.783Z,7.40
2023-01-12T09:45:01.300Z,7.40
2023-01-12T09:47:33.892Z,7.50
2023-01-12T09:50:10.532Z,7.60
2023-01-12T09:52:41.155Z,7.60
2023-01-12T09:55:11.305Z,7.70
2023-01-12T09:57:55.870Z,7.80
2023-01-12T10:00:24.471Z,7.90
2023-01-12T10:02:54.358Z,7.90
2023-01-12T10:05:39.001Z,7.90
2023-01-12T10:08:12.743Z,8.00
2023-01-12T10:10:42.069Z,8.00
2023-01-12T10:13:14.343Z,8.00
2023-01-12T10:15:46.172Z,8.00
2023-01-12T10:18:18.652Z,8.00
2023-01-12T10:20:48.138Z,8.00
2023-01-12T10:23:19.131Z,8.00
2023-01-12T10:25:48.749Z,8.20
2023-01-12T10:28:19.326Z,8.20
2023-01-12T10:30:47.441Z,8.20
2023-01-12T10:33:17.042Z,8.30
2023-01-12T10:35:51.567Z,8.30
2023-01-12T10:38:22.357Z,8.30
2023-01-12T10:41:04.109Z,8.30
2023-01-12T10:43:35.346Z,8.30
2023-01-12T10:46:07.474Z,8.30
2023-01-12T10:48:36.258Z,8.30
2023-01-12T10:51:07.025Z,8.40
2023-01-12T10:53:39.826Z,8.50
2023-01-12T10:56:15.701Z,8.60
2023-01-12T10:58:47.513Z,8.60
2023-01-12T11:01:15.926Z,8.70
2023-01-12T11:03:44.151Z,8.70
2023-01-12T11:06:27.190Z,8.70
2023-01-12T11:08:55.774Z,8.80
2023-01-12T11:11:25.271Z,8.80
2023-01-12T11:13:56.476Z,8.80
2023-01-12T11:16:25.318Z,8.90
2023-01-12T11:19:15.297Z,9.00
2023-01-12T11:21:46.682Z,9.00
2023-01-12T11:24:18.101Z,9.00
2023-01-12T11:26:47.745Z,9.00
2023-01-12T11:29:28.400Z,9.10
2023-01-12T11:31:59.886Z,9.00
2023-01-12T11:34:31.987Z,9.00
2023-01-12T11:37:06.751Z,9.00
2023-01-12T11:39:37.330Z,9.10
2023-01-12T11:42:28.398Z,9.20
2023-01-12T11:44:59.260Z,9.20
2023-01-12T11:47:30.153Z,9.20
2023-01-12T11:50:01.189Z,9.20
2023-01-12T11:52:30.918Z,9.10
2023-01-12T11:54:59.553Z,9.10
2023-01-12T11:57:35.924Z,9.10
2023-01-12T12:00:12.619Z,9.10
2023-01-12T12:02:42.212Z,9.10
2023-01-12T12:08:15.979Z,9.10
2023-01-12T12:10:48.029Z,9.20
2023-01-12T12:13:21.639Z,9.20
2023-01-12T12:15:53.419Z,9.20
2023-01-12T12:18:25.357Z,9.20
2023-01-12T12:21:01.290Z,9.20
2023-01-12T12:23:32.769Z,9.10
2023-01-12T12:26:08.061Z,9.10
2023-01-12T12:28:55.540Z,9.10
2023-01-12T12:31:30.443Z,9.10
2023-01-12T12:34:09.147Z,9.10
2023-01-12T12:36:41.675Z,9.00
2023-01-12T12:39:35.771Z,9.00
2023-01-12T12:42:27.582Z,9.00
2023-01-12T12:45:25.973Z,9.00
2023-01-12T12:47:58.388Z,9.00
2023-01-12T12:50:28.991Z,9.00
2023-01-12T12:53:11.225Z,9.00
2023-01-12T12:55:41.053Z,9.00
2023-01-12T12:58:24.532Z,9.00
2023-01-12T13:00:53.842Z,9.10
2023-01-12T13:03:37.233Z,9.10
2023-01-12T13:06:12.409Z,9.10
2023-01-12T13:08:41.133Z,9.10
2023-01-12T13:11:10.660Z,9.10
2023-01-12T13:13:41.156Z,9.10
2023-01-12T13:16:29.350Z,9.10
2023-01-12T13:19:06.065Z,9.10
2023-01-12T13:21:56.115Z,9.10
2023-01-12T13:24:42.883Z,9.20
2023-01-12T13:27:30.783Z,9.20
2023-01-12T13:30:14.443Z,9.20
2023-01-12T13:32:50.491Z,9.20
2023-01-12T13:35:29.706Z,9.20
2023-01-12T13:38:02.288Z,9.20
2023-01-12T13:40:31.367Z,9.20
2023-01-12T13:43:15.324Z,9.20
2023-01-12T13:45:51.998Z,9.20
2023-01-12T13:48:21.823Z,9.20
2023-01-12T13:50:51.947Z,9.20
2023-01-12T13:53:26.007Z,9.20
2023-01-12T13:55:59.755Z,9.20
2023-01-12T13:58:28.347Z,9.20
2023-01-12T14:00:58.550Z,9.20
2023-01-12T14:03:35.868Z,9.10
2023-01-12T14:06:06.629Z,9.10
2023-01-12T14:08:51.176Z,9.10
2023-01-12T14:11:43.927Z,9.10
2023-01-12T14:14:46.614Z,9.20
2023-01-12T14:17:35.129Z,9.10
2023-01-12T14:20:14.326Z,9.20
2023-01-12T14:22:42.433Z,9.20
2023-01-12T14:25:17.751Z,9.10
2023-01-12T14:27:52.487Z,9.10
2023-01-12T14:30:21.415Z,9.10
2023-01-12T14:32:50.530Z,9.10
2023-01-12T14:35:21.711Z,9.00
2023-01-12T14:37:51.419Z,8.90
2023-01-12T14:40:24.694Z,8.80
2023-01-12T14:43:10.658Z,8.80
2023-01-12T14:45:59.575Z,8.70
2023-01-12T14:48:28.427Z,8.80
2023-01-12T14:51:14.484Z,8.70
2023-01-12T14:53:43.871Z,8.70
2023-01-12T14:56:19.841Z,8.70
2023-01-12T14:58:48.086Z,8.70
2023-01-12T15:01:32.964Z,8.70
2023-01-12T15:04:01.638Z,8.70
2023-01-12T15:06:33.061Z,8.70
2023-01-12T15:09:01.772Z,8.70
2023-01-12T15:11:31.964Z,8.60
2023-01-12T15:14:01.257Z,8.60
2023-01-12T15:16:46.997Z,8.60
2023-01-12T15:19:32.770Z,8.50
2023-01-12T15:22:19.434Z,8.50
2023-01-12T15:25:05.523Z,8.40
2023-01-12T15:27:33.694Z,8.40
2023-01-12T15:30:02.063Z,8.40
2023-01-12T15:32:46.336Z,8.30
2023-01-12T15:35:16.262Z,8.30
2023-01-12T15:37:45.637Z,8.30
2023-01-12T15:40:15.125Z,8.40
2023-01-12T15:42:43.209Z,8.30
2023-01-12T15:45:16.281Z,8.20
2023-01-12T15:47:44.409Z,8.20
2023-01-12T15:50:12.486Z,8.20
2023-01-12T15:52:40.753Z,8.30
2023-01-12T15:55:13.773Z,8.20
2023-01-12T15:57:42.905Z,8.30
2023-01-12T16:00:14.823Z,8.30
2023-01-12T16:02:48.037Z,8.20
2023-01-12T16:05:16.704Z,8.30
2023-01-12T16:07:48.158Z,8.30
2023-01-12T16:10:19.192Z,8.30
2023-01-12T16:12:47.891Z,8.20
2023-01-12T16:15:17.343Z,8.20
2023-01-12T16:17:45.566Z,8.30
2023-01-12T16:20:16.110Z,8.20
2023-01-12T16:22:45.053Z,8.30
2023-01-12T16:25:13.977Z,8.20
2023-01-12T16:27:43.396Z,8.30
2023-01-12T16:30:13.715Z,8.30
2023-01-12T16:32:46.130Z,8.20
2023-01-12T16:35:15.708Z,8.20
2023-01-12T16:37:44.593Z,8.20
2023-01-12T16:40:15.006Z,8.20
2023-01-12T16:42:44.693Z,8.10
2023-01-12T16:45:13.681Z,8.10
2023-01-12T16:47:41.908Z,8.10
2023-01-12T16:50:10.420Z,8.10
2023-01-12T16:52:38.746Z,8.10
2023-01-12T16:55:07.314Z,8.20
2023-01-12T16:57:35.402Z,8.10
2023-01-12T17:00:05.998Z,8.10
2023-01-12T17:02:34.352Z,8.10
2023-01-12T17:05:02.839Z,8.10
2023-01-12T17:07:31.371Z,8.10
2023-01-12T17:10:00.514Z,8.10
2023-01-12T17:12:28.797Z,8.10
2023-01-12T17:14:57.713Z,8.00
2023-01-12T17:17:28.254Z,8.10
2023-01-12T17:19:56.713Z,8.10
2023-01-12T17:22:25.610Z,8.10
2023-01-12T17:24:53.716Z,8.20
2023-01-12T17:27:22.057Z,8.10
2023-01-12T17:29:50.257Z,8.10
2023-01-12T17:32:18.547Z,8.10
2023-01-12T17:34:48.198Z,8.10
2023-01-12T17:37:16.816Z,8.10
2023-01-12T17:39:44.877Z,8.10
2023-01-12T17:42:31.192Z,8.10
2023-01-12T17:44:59.276Z,8.20
2023-01-12T17:47:27.498Z,8.10
2023-01-12T17:49:56.843Z,8.10
2023-01-12T17:52:25.085Z,8.10
2023-01-12T17:54:53.917Z,8.00
2023-01-12T17:57:21.947Z,8.00
2023-01-12T17:59:51.119Z,7.90
2023-01-12T18:02:19.429Z,7.90
2023-01-12T18:04:47.901Z,7.90
2023-01-12T18:07:17.555Z,7.90
2023-01-12T18:09:45.971Z,8.00
2023-01-12T18:12:16.283Z,8.00
2023-01-12T18:14:44.954Z,8.00
2023-01-12T18:17:13.089Z,8.00
2023-01-12T18:19:42.440Z,7.90
2023-01-12T18:22:11.748Z,8.00
2023-01-12T18:24:41.420Z,8.00
2023-01-12T18:27:09.899Z,8.00
2023-01-12T18:29:37.968Z,7.90
2023-01-12T18:32:06.959Z,7.90
2023-01-12T18:34:36.015Z,7.90
2023-01-12T18:37:05.031Z,7.90
2023-01-12T18:39:33.059Z,7.90
2023-01-12T18:42:20.287Z,8.00
2023-01-12T18:44:49.067Z,8.00
2023-01-12T18:47:34.570Z,7.90
2023-01-12T18:50:32.240Z,7.90
2023-01-12T18:53:18.326Z,8.00
2023-01-12T18:55:46.646Z,8.00
2023-01-12T18:58:16.299Z,8.00
2023-01-12T19:00:44.454Z,8.00
2023-01-12T19:03:13.054Z,8.00
2023-01-12T19:05:52.393Z,8.10
2023-01-12T19:08:37.888Z,8.10
2023-01-12T19:11:09.494Z,8.10
2023-01-12T19:13:53.303Z,8.10
2023-01-12T19:16:38.760Z,8.10
2023-01-12T19:19:08.296Z,8.10
2023-01-12T19:21:54.225Z,8.00
2023-01-12T19:24:40.168Z,8.00
2023-01-12T19:27:28.962Z,8.00
2023-01-12T19:29:58.747Z,8.00
2023-01-12T19:32:26.832Z,7.90
2023-01-12T19:35:02.242Z,7.90
2023-01-12T19:37:34.388Z,7.90
2023-01-12T19:40:05.449Z,7.90
2023-01-12T19:42:50.807Z,7.90
2023-01-12T19:45:20.813Z,7.90
2023-01-12T19:47:50.152Z,7.90
2023-01-12T19:50:18.775Z,7.90
2023-01-12T19:52:47.141Z,7.90
2023-01-12T19:55:16.307Z,7.80
2023-01-12T19:57:44.910Z,7.80
2023-01-12T20:00:14.817Z,7.80
2023-01-12T20:02:44.757Z,7.80
2023-01-12T20:05:17.112Z,7.80
2023-01-12T20:07:45.753Z,7.80
2023-01-12T20:10:13.818Z,7.80
2023-01-12T20:12:42.537Z,7.80
2023-01-12T20:15:11.637Z,7.80
2023-01-12T20:17:40.312Z,7.80
2023-01-12T20:20:11.554Z,7.80
2023-01-12T20:22:40.138Z,7.80
2023-01-12T20:25:08.774Z,7.80
2023-01-12T20:27:38.354Z,7.70
2023-01-12T20:30:07.369Z,7.70
2023-01-12T20:32:41.556Z,7.70
2023-01-12T20:35:13.945Z,7.70
2023-01-12T20:37:42.384Z,7.70
2023-01-12T20:40:10.961Z,7.70
2023-01-12T20:42:39.086Z,7.60
2023-01-12T20:45:08.369Z,7.60
2023-01-12T20:47:36.494Z,7.60
2023-01-12T20:50:07.649Z,7.60
2023-01-12T20:52:36.988Z,7.60
2023-01-12T20:55:06.059Z,7.50
2023-01-12T20:57:34.848Z,7.50
2023-01-12T21:00:03.571Z,7.40
2023-01-12T21:02:31.806Z,7.40
2023-01-12T21:05:00.283Z,7.40
2023-01-12T21:07:28.309Z,7.40
2023-01-12T21:09:58.235Z,7.40
2023-01-12T21:12:27.618Z,7.40
2023-01-12T21:14:56.875Z,7.50
2023-01-12T21:17:28.326Z,7.40
2023-01-12T21:20:04.355Z,7.40
2023-01-12T21:22:33.278Z,7.40
2023-01-12T21:25:02.628Z,7.40
2023-01-12T21:27:31.160Z,7.50
2023-01-12T21:29:59.187Z,7.40
2023-01-12T21:32:29.403Z,7.40
2023-01-12T21:34:57.460Z,7.40
2023-01-12T21:37:25.583Z,7.50
2023-01-12T21:39:54.067Z,7.50
2023-01-12T21:42:40.966Z,7.60
2023-01-12T21:45:09.589Z,7.60
2023-01-12T21:47:37.911Z,7.50
2023-01-12T21:50:06.422Z,7.60
2023-01-12T21:52:34.522Z,7.60
2023-01-12T21:55:02.672Z,7.60
2023-01-12T21:57:32.213Z,7.60
2023-01-12T22:00:00.813Z,7.70
2023-01-12T22:02:29.023Z,7.70
2023-01-12T22:04:58.422Z,7.70
2023-01-12T22:07:27.061Z,7.70
2023-01-12T22:10:15.915Z,7.70
2023-01-12T22:12:45.357Z,7.70
2023-01-12T22:15:13.612Z,7.80
2023-01-12T22:17:43.025Z,7.80
2023-01-12T22:20:11.952Z,7.80
2023-01-12T22:22:41.115Z,7.90
2023-01-12T22:25:10.326Z,7.90
2023-01-12T22:27:38.772Z,7.90
2023-01-12T22:30:10.026Z,7.90
2023-01-12T22:32:39.937Z,7.90
2023-01-12T22:35:09.019Z,8.00
2023-01-12T22:37:37.661Z,8.00
2023-01-12T22:40:07.225Z,8.00
2023-01-12T22:42:55.600Z,8.00
2023-01-12T22:45:30.019Z,8.00
2023-01-12T22:47:58.089Z,8.00
2023-01-12T22:50:26.319Z,8.00
2023-01-12T22:52:56.360Z,8.00
2023-01-12T22:55:25.435Z,8.00
2023-01-12T22:57:53.510Z,8.10
2023-01-12T23:00:22.445Z,8.10
2023-01-12T23:03:03.652Z,8.10
2023-01-12T23:05:33.632Z,8.10
2023-01-12T23:08:01.823Z,8.20
2023-01-12T23:10:30.136Z,8.20
2023-01-12T23:13:15.914Z,8.20
2023-01-12T23:15:46.704Z,8.20
2023-01-12T23:18:17.166Z,8.20
2023-01-12T23:20:46.564Z,8.20
2023-01-12T23:23:15.110Z,8.20
2023-01-12T23:25:44.791Z,8.20
2023-01-12T23:28:13.959Z,8.20
2023-01-12T23:30:42.182Z,8.30
2023-01-12T23:33:10.644Z,8.30
2023-01-12T23:35:41.044Z,8.30
2023-01-12T23:38:11.821Z,8.30
2023-01-12T23:40:39.887Z,8.30
2023-01-12T23:43:09.005Z,8.30
2023-01-12T23:45:37.253Z,8.30
2023-01-12T23:48:07.818Z,8.30
2023-01-12T23:50:35.931Z,8.30
2023-01-12T23:53:05.781Z,8.30
2023-01-12T23:55:34.247Z,8.30
2023-01-12T23:58:02.566Z,8.30
